createdAt,value
2023-03-29T00:01:58.638Z,5.40
2023-03-29T00:07:04.409Z,5.26
2023-03-29T00:12:06.448Z,5.23
2023-03-29T00:17:08.081Z,5.35
2023-03-29T00:22:10.649Z,5.44
2023-03-29T00:27:12.298Z,5.47
2023-03-29T00:32:14.222Z,5.42
2023-03-29T00:37:15.782Z,5.32
2023-03-29T00:42:20.705Z,5.47
2023-03-29T00:47:29.938Z,5.43
2023-03-29T00:52:34.368Z,5.69
2023-03-29T00:57:39.751Z,5.54
2023-03-29T01:02:42.430Z,5.48
2023-03-29T01:07:53.793Z,5.76
2023-03-29T01:13:03.776Z,5.72
2023-03-29T01:18:06.544Z,5.71
2023-03-29T01:23:21.357Z,5.49
2023-03-29T01:28:29.805Z,5.53
2023-03-29T01:33:38.548Z,5.52
2023-03-29T01:39:06.145Z,5.72
2023-03-29T01:44:30.792Z,5.76
2023-03-29T01:49:38.085Z,5.84
2023-03-29T01:54:53.903Z,5.70
2023-03-29T01:59:57.661Z,5.60
2023-03-29T02:05:00.153Z,5.80
2023-03-29T02:10:03.285Z,5.88
2023-03-29T02:15:10.902Z,6.02
2023-03-29T02:20:23.573Z,5.87
2023-03-29T02:25:26.120Z,5.91
2023-03-29T02:30:33.428Z,5.81
2023-03-29T02:35:41.597Z,5.89
2023-03-29T02:40:46.801Z,5.92
2023-03-29T02:45:49.304Z,5.83
2023-03-29T02:50:56.238Z,5.97
2023-03-29T02:56:02.310Z,5.88
2023-03-29T03:01:06.935Z,5.79
2023-03-29T03:06:08.670Z,5.81
2023-03-29T03:11:10.417Z,6.03
2023-03-29T03:16:11.990Z,5.87
2023-03-29T03:21:16.121Z,5.98
2023-03-29T03:26:19.982Z,5.95
2023-03-29T03:31:24.866Z,5.91
2023-03-29T03:36:47.314Z,5.94
2023-03-29T03:41:49.232Z,5.80
2023-03-29T03:46:52.436Z,5.67
2023-03-29T03:51:54.254Z,5.64
2023-03-29T03:56:56.148Z,5.57
2023-03-29T04:02:08.669Z,5.58
2023-03-29T04:07:14.263Z,5.58
2023-03-29T04:12:33.075Z,5.84
2023-03-29T04:17:35.797Z,5.86
2023-03-29T04:22:53.457Z,5.91
2023-03-29T04:27:56.417Z,5.86
2023-03-29T04:33:18.494Z,5.97
2023-03-29T04:38:26.812Z,5.72
2023-03-29T04:43:31.072Z,5.88
2023-03-29T04:48:44.884Z,5.76
2023-03-29T04:53:50.916Z,5.93
2023-03-29T04:58:52.852Z,5.95
2023-03-29T05:03:56.870Z,6.05
2023-03-29T05:09:08.976Z,5.98
2023-03-29T05:14:21.717Z,6.24
2023-03-29T05:19:23.476Z,6.24
2023-03-29T05:24:27.493Z,6.03
2023-03-29T05:29:35.443Z,6.17
2023-03-29T05:34:59.054Z,6.10
2023-03-29T05:40:10.199Z,6.30
2023-03-29T05:45:33.608Z,6.13
2023-03-29T05:50:37.242Z,6.39
2023-03-29T05:55:41.318Z,6.28
2023-03-29T06:00:46.530Z,6.25
2023-03-29T06:06:03.910Z,6.23
2023-03-29T06:11:09.027Z,6.48
2023-03-29T06:16:29.435Z,6.30
2023-03-29T06:21:31.764Z,6.43
2023-03-29T06:26:35.292Z,6.46
2023-03-29T06:31:37.232Z,6.73
2023-03-29T06:36:41.743Z,6.65
2023-03-29T06:41:43.349Z,6.82
2023-03-29T06:46:58.421Z,6.89
2023-03-29T06:52:00.720Z,6.95
2023-03-29T06:57:06.317Z,7.12
2023-03-29T07:02:12.833Z,7.03
2023-03-29T07:07:59.884Z,7.32
2023-03-29T07:13:21.147Z,7.28
2023-03-29T07:18:24.796Z,7.56
2023-03-29T07:23:26.615Z,7.67
2023-03-29T07:28:31.499Z,7.83
2023-03-29T07:33:34.592Z,7.94
2023-03-29T07:38:39.856Z,7.84
2023-03-29T07:43:47.156Z,7.75
2023-03-29T07:48:52.225Z,7.68
2023-03-29T07:53:54.784Z,7.75
2023-03-29T07:59:11.268Z,7.91
2023-03-29T08:04:14.386Z,8.04
2023-03-29T08:09:34.723Z,8.21
2023-03-29T08:14:36.754Z,8.35
2023-03-29T08:19:51.107Z,8.44
2023-03-29T08:24:56.566Z,8.36
2023-03-29T08:30:02.788Z,8.69
2023-03-29T08:35:09.641Z,8.61
2023-03-29T08:40:24.927Z,9.02
2023-03-29T08:45:39.081Z,9.11
2023-03-29T08:50:50.025Z,8.95
2023-03-29T08:55:56.586Z,9.31
2023-03-29T09:01:16.894Z,9.20
2023-03-29T09:06:24.686Z,9.42
2023-03-29T09:11:51.581Z,9.83
2023-03-29T09:17:07.013Z,9.95
2023-03-29T09:22:53.923Z,10.14
2023-03-29T09:28:12.438Z,9.91
2023-03-29T09:33:37.167Z,10.25
2023-03-29T09:38:51.055Z,10.61
2023-03-29T09:43:56.731Z,10.28
2023-03-29T09:49:11.122Z,10.07
2023-03-29T09:54:13.160Z,10.77
2023-03-29T09:59:47.168Z,10.49
2023-03-29T10:05:04.076Z,10.00
2023-03-29T10:10:13.286Z,10.13
2023-03-29T10:15:28.691Z,10.15
2023-03-29T10:20:34.501Z,12.38
2023-03-29T10:25:42.963Z,11.43
2023-03-29T10:30:52.503Z,11.10
2023-03-29T10:35:57.327Z,11.63
2023-03-29T10:41:12.945Z,11.05
2023-03-29T10:46:41.978Z,11.23
2023-03-29T10:51:49.561Z,11.39
2023-03-29T10:56:58.023Z,13.16
2023-03-29T11:02:17.185Z,12.60
2023-03-29T11:07:34.101Z,12.21
2023-03-29T11:13:17.423Z,11.75
2023-03-29T11:18:47.438Z,11.98
2023-03-29T11:24:26.952Z,11.87
2023-03-29T11:29:41.392Z,12.03
2023-03-29T11:35:01.659Z,11.60
2023-03-29T11:40:15.410Z,11.83
2023-03-29T11:45:27.276Z,12.03
2023-03-29T11:50:57.795Z,11.52
2023-03-29T11:56:11.972Z,12.27
2023-03-29T12:01:20.319Z,12.35
2023-03-29T12:06:34.464Z,12.03
2023-03-29T12:11:57.819Z,11.85
2023-03-29T12:17:03.376Z,11.41
2023-03-29T12:22:07.983Z,11.40
2023-03-29T12:27:38.263Z,11.50
2023-03-29T12:32:53.458Z,11.55
2023-03-29T12:38:22.958Z,11.77
2023-03-29T12:43:49.140Z,11.27
2023-03-29T12:49:36.148Z,11.54
2023-03-29T12:54:37.933Z,11.64
2023-03-29T12:59:45.056Z,11.68
2023-03-29T13:04:52.321Z,12.00
2023-03-29T13:10:08.535Z,11.70
2023-03-29T13:15:19.337Z,12.23
2023-03-29T13:20:39.727Z,11.88
2023-03-29T13:26:01.619Z,11.92
2023-03-29T13:31:29.432Z,11.76
2023-03-29T13:36:46.597Z,12.21
2023-03-29T13:41:52.699Z,12.79
2023-03-29T13:47:13.253Z,12.64
2023-03-29T13:52:34.885Z,12.67
2023-03-29T13:57:53.165Z,12.96
2023-03-29T14:03:04.315Z,13.29
2023-03-29T14:08:16.935Z,13.54
2023-03-29T14:13:22.911Z,13.26
2023-03-29T14:18:28.139Z,13.14
2023-03-29T14:23:33.001Z,14.36
2023-03-29T14:28:34.636Z,13.62
2023-03-29T14:33:38.170Z,13.72
2023-03-29T14:38:39.943Z,13.72
2023-03-29T14:43:43.400Z,13.69
2023-03-29T14:48:45.409Z,13.63
2023-03-29T14:53:48.324Z,13.78
2023-03-29T14:58:50.031Z,13.98
2023-03-29T15:04:05.080Z,14.17
2023-03-29T15:09:14.195Z,14.48
2023-03-29T15:14:18.801Z,13.79
2023-03-29T15:19:22.228Z,14.27
2023-03-29T15:24:32.290Z,14.11
2023-03-29T15:29:37.124Z,14.22
2023-03-29T15:34:38.942Z,14.23
2023-03-29T15:39:44.270Z,14.20
2023-03-29T15:44:45.989Z,14.26
2023-03-29T15:49:47.718Z,13.90
2023-03-29T15:54:49.289Z,14.34
2023-03-29T15:59:50.905Z,14.69
2023-03-29T16:04:56.217Z,14.83
2023-03-29T16:09:58.026Z,15.01
2023-03-29T16:14:59.746Z,15.08
2023-03-29T16:20:01.369Z,14.77
2023-03-29T16:25:13.582Z,14.53
2023-03-29T16:30:15.331Z,14.64
2023-03-29T16:35:27.786Z,14.51
2023-03-29T16:40:29.348Z,14.65
2023-03-29T16:45:31.105Z,14.80
2023-03-29T16:50:32.722Z,14.76
2023-03-29T16:55:34.732Z,14.60
2023-03-29T17:00:36.635Z,14.70
2023-03-29T17:05:41.494Z,14.58
2023-03-29T17:10:43.760Z,14.42
2023-03-29T17:15:45.310Z,14.36
2023-03-29T17:20:47.318Z,14.21
2023-03-29T17:25:48.987Z,14.22
2023-03-29T17:30:50.932Z,14.03
2023-03-29T17:35:53.213Z,13.94
2023-03-29T17:40:55.371Z,13.93
2023-03-29T17:45:56.910Z,14.11
2023-03-29T17:50:58.641Z,14.03
2023-03-29T17:56:00.564Z,14.01
2023-03-29T18:01:13.421Z,14.11
2023-03-29T18:06:20.300Z,13.98
2023-03-29T18:11:24.665Z,13.96
2023-03-29T18:16:26.698Z,13.88
2023-03-29T18:21:28.298Z,13.76
2023-03-29T18:26:29.858Z,13.61
2023-03-29T18:31:31.581Z,13.47
2023-03-29T18:36:33.181Z,13.50
2023-03-29T18:41:37.297Z,13.66
2023-03-29T18:46:39.014Z,13.63
2023-03-29T18:51:42.240Z,13.49
2023-03-29T18:56:44.091Z,13.62
2023-03-29T19:01:48.202Z,13.42
2023-03-29T19:06:49.826Z,13.51
2023-03-29T19:11:51.493Z,13.58
2023-03-29T19:16:53.269Z,13.74
2023-03-29T19:21:57.643Z,13.77
2023-03-29T19:27:01.807Z,13.50
2023-03-29T19:32:07.081Z,13.43
2023-03-29T19:37:08.644Z,13.25
2023-03-29T19:42:10.966Z,13.36
2023-03-29T19:47:12.512Z,13.10
2023-03-29T19:52:14.279Z,12.72
2023-03-29T19:57:16.390Z,13.02
2023-03-29T20:02:18.091Z,12.81
2023-03-29T20:07:19.674Z,12.79
2023-03-29T20:12:21.379Z,12.87
2023-03-29T20:17:23.372Z,12.80
2023-03-29T20:22:26.046Z,12.93
2023-03-29T20:27:29.414Z,12.78
2023-03-29T20:32:31.043Z,13.00
2023-03-29T20:37:32.794Z,13.13
2023-03-29T20:42:36.613Z,13.08
2023-03-29T20:47:42.497Z,13.18
2023-03-29T20:52:44.644Z,13.20
2023-03-29T20:57:46.196Z,13.22
2023-03-29T21:02:48.200Z,13.15
2023-03-29T21:07:49.989Z,13.43
2023-03-29T21:12:54.279Z,13.61
2023-03-29T21:17:56.378Z,13.70
2023-03-29T21:22:58.163Z,13.54
2023-03-29T21:27:59.915Z,13.18
2023-03-29T21:33:02.158Z,13.15
2023-03-29T21:38:03.906Z,13.04
2023-03-29T21:43:05.413Z,12.98
2023-03-29T21:48:08.588Z,12.66
2023-03-29T21:53:10.533Z,12.85
2023-03-29T21:58:12.125Z,12.96
2023-03-29T22:03:14.844Z,12.76
2023-03-29T22:08:16.444Z,12.53
2023-03-29T22:13:18.494Z,12.83
2023-03-29T22:18:20.865Z,12.64
2023-03-29T22:23:24.804Z,12.96
2023-03-29T22:28:26.418Z,13.12
2023-03-29T22:33:27.977Z,12.92
2023-03-29T22:38:32.455Z,12.92
2023-03-29T22:43:36.684Z,13.06
2023-03-29T22:48:39.495Z,13.00
2023-03-29T22:53:41.576Z,12.90
2023-03-29T22:58:43.789Z,13.12
2023-03-29T23:03:45.455Z,12.84
2023-03-29T23:08:47.052Z,13.01
2023-03-29T23:13:52.568Z,13.18
2023-03-29T23:18:54.328Z,13.11
2023-03-29T23:23:55.909Z,13.36
2023-03-29T23:28:57.588Z,13.26
2023-03-29T23:33:59.250Z,13.26
2023-03-29T23:39:01.914Z,13.04
2023-03-29T23:44:03.777Z,13.12
2023-03-29T23:49:05.377Z,12.83
2023-03-29T23:54:07.161Z,12.96
2023-03-29T23:59:08.874Z,12.91
